sensor_id;sensor_type;location;lat;lon;timestamp;temperature;humidity
4615;DHT22;2320;51.362;6.946;2023-03-24T00:01:20;12.30;99.90
4615;DHT22;2320;51.362;6.946;2023-03-24T00:03:45;12.20;99.90
4615;DHT22;2320;51.362;6.946;2023-03-24T00:06:13;12.20;99.90
4615;DHT22;2320;51.362;6.946;2023-03-24T00:08:39;12.20;99.90
4615;DHT22;2320;51.362;6.946;2023-03-24T00:11:06;12.20;99.90
4615;DHT22;2320;51.362;6.946;2023-03-24T00:13:32;12.20;99.90
4615;DHT22;2320;51.362;6.946;2023-03-24T00:16:07;12.20;99.90
4615;DHT22;2320;51.362;6.946;2023-03-24T00:18:34;12.20;99.90
4615;DHT22;2320;51.362;6.946;2023-03-24T00:21:01;12.20;99.90
4615;DHT22;2320;51.362;6.946;2023-03-24T00:23:27;12.20;99.90
4615;DHT22;2320;51.362;6.946;2023-03-24T00:26:01;12.20;99.90
4615;DHT22;2320;51.362;6.946;2023-03-24T00:28:28;12.20;99.90
4615;DHT22;2320;51.362;6.946;2023-03-24T00:30:53;12.20;99.90
4615;DHT22;2320;51.362;6.946;2023-03-24T00:33:18;12.30;99.90
4615;DHT22;2320;51.362;6.946;2023-03-24T00:35:44;12.30;99.90
4615;DHT22;2320;51.362;6.946;2023-03-24T00:38:10;12.30;99.90
4615;DHT22;2320;51.362;6.946;2023-03-24T00:40:36;12.20;99.90
4615;DHT22;2320;51.362;6.946;2023-03-24T00:43:01;12.30;99.90
4615;DHT22;2320;51.362;6.946;2023-03-24T00:45:27;12.30;99.90
4615;DHT22;2320;51.362;6.946;2023-03-24T00:47:53;12.20;99.90
4615;DHT22;2320;51.362;6.946;2023-03-24T00:50:22;12.30;99.90
4615;DHT22;2320;51.362;6.946;2023-03-24T00:52:51;12.30;99.90
4615;DHT22;2320;51.362;6.946;2023-03-24T00:55:17;12.40;99.90
4615;DHT22;2320;51.362;6.946;2023-03-24T00:57:43;12.40;99.90
4615;DHT22;2320;51.362;6.946;2023-03-24T01:00:15;12.40;99.90
4615;DHT22;2320;51.362;6.946;2023-03-24T01:02:45;12.40;99.90
4615;DHT22;2320;51.362;6.946;2023-03-24T01:05:10;12.50;99.90
4615;DHT22;2320;51.362;6.946;2023-03-24T01:07:36;12.40;99.90
4615;DHT22;2320;51.362;6.946;2023-03-24T01:10:06;12.40;99.90
4615;DHT22;2320;51.362;6.946;2023-03-24T01:12:34;12.40;99.90
4615;DHT22;2320;51.362;6.946;2023-03-24T01:15:02;12.40;99.90
4615;DHT22;2320;51.362;6.946;2023-03-24T01:17:30;12.40;99.90
4615;DHT22;2320;51.362;6.946;2023-03-24T01:19:56;12.50;99.90
4615;DHT22;2320;51.362;6.946;2023-03-24T01:22:22;12.60;99.90
4615;DHT22;2320;51.362;6.946;2023-03-24T01:24:51;12.50;99.90
4615;DHT22;2320;51.362;6.946;2023-03-24T01:27:17;12.50;99.90
4615;DHT22;2320;51.362;6.946;2023-03-24T01:29:43;12.60;99.90
4615;DHT22;2320;51.362;6.946;2023-03-24T01:32:08;12.60;99.90
4615;DHT22;2320;51.362;6.946;2023-03-24T01:34:34;12.60;99.90
4615;DHT22;2320;51.362;6.946;2023-03-24T01:37:00;12.60;99.90
4615;DHT22;2320;51.362;6.946;2023-03-24T01:39:25;12.50;99.90
4615;DHT22;2320;51.362;6.946;2023-03-24T01:41:51;12.40;99.90
4615;DHT22;2320;51.362;6.946;2023-03-24T01:44:24;12.40;99.90
4615;DHT22;2320;51.362;6.946;2023-03-24T01:46:50;12.30;99.90
4615;DHT22;2320;51.362;6.946;2023-03-24T01:49:15;12.50;99.90
4615;DHT22;2320;51.362;6.946;2023-03-24T01:51:42;12.50;99.90
4615;DHT22;2320;51.362;6.946;2023-03-24T01:54:10;12.50;99.90
4615;DHT22;2320;51.362;6.946;2023-03-24T01:56:38;12.50;99.90
4615;DHT22;2320;51.362;6.946;2023-03-24T01:59:05;12.50;99.90
4615;DHT22;2320;51.362;6.946;2023-03-24T02:01:31;12.50;99.90
4615;DHT22;2320;51.362;6.946;2023-03-24T02:03:57;12.50;99.90
4615;DHT22;2320;51.362;6.946;2023-03-24T02:06:23;12.50;99.90
4615;DHT22;2320;51.362;6.946;2023-03-24T02:08:58;12.50;99.90
4615;DHT22;2320;51.362;6.946;2023-03-24T02:11:28;12.40;99.90
4615;DHT22;2320;51.362;6.946;2023-03-24T02:13:54;12.40;99.90
4615;DHT22;2320;51.362;6.946;2023-03-24T02:16:23;12.50;99.90
4615;DHT22;2320;51.362;6.946;2023-03-24T02:18:59;12.50;99.90
4615;DHT22;2320;51.362;6.946;2023-03-24T02:42:17;12.40;99.90
4615;DHT22;2320;51.362;6.946;2023-03-24T02:45:00;12.50;99.90
4615;DHT22;2320;51.362;6.946;2023-03-24T02:47:38;12.50;99.90
4615;DHT22;2320;51.362;6.946;2023-03-24T02:50:25;12.50;99.90
4615;DHT22;2320;51.362;6.946;2023-03-24T02:52:57;12.60;99.90
4615;DHT22;2320;51.362;6.946;2023-03-24T02:55:27;12.60;99.90
4615;DHT22;2320;51.362;6.946;2023-03-24T02:58:05;12.70;99.90
4615;DHT22;2320;51.362;6.946;2023-03-24T03:00:39;12.70;99.90
4615;DHT22;2320;51.362;6.946;2023-03-24T03:03:18;12.70;99.90
4615;DHT22;2320;51.362;6.946;2023-03-24T03:05:53;12.70;99.90
4615;DHT22;2320;51.362;6.946;2023-03-24T03:08:19;12.80;99.90
4615;DHT22;2320;51.362;6.946;2023-03-24T03:10:46;12.80;99.90
4615;DHT22;2320;51.362;6.946;2023-03-24T03:13:26;12.80;99.90
4615;DHT22;2320;51.362;6.946;2023-03-24T03:15:55;12.80;99.90
4615;DHT22;2320;51.362;6.946;2023-03-24T03:18:34;12.90;99.90
4615;DHT22;2320;51.362;6.946;2023-03-24T03:21:05;13.00;99.90
4615;DHT22;2320;51.362;6.946;2023-03-24T03:23:36;12.90;99.90
4615;DHT22;2320;51.362;6.946;2023-03-24T03:26:02;12.90;99.90
4615;DHT22;2320;51.362;6.946;2023-03-24T03:28:30;12.90;99.90
4615;DHT22;2320;51.362;6.946;2023-03-24T03:30:58;12.90;99.90
4615;DHT22;2320;51.362;6.946;2023-03-24T03:33:28;12.90;99.90
4615;DHT22;2320;51.362;6.946;2023-03-24T03:36:01;13.00;99.90
4615;DHT22;2320;51.362;6.946;2023-03-24T03:38:31;13.00;99.90
4615;DHT22;2320;51.362;6.946;2023-03-24T03:41:01;13.00;99.90
4615;DHT22;2320;51.362;6.946;2023-03-24T03:43:27;13.00;99.90
4615;DHT22;2320;51.362;6.946;2023-03-24T03:45:54;13.00;99.90
4615;DHT22;2320;51.362;6.946;2023-03-24T03:48:20;13.00;99.90
4615;DHT22;2320;51.362;6.946;2023-03-24T03:50:45;13.00;99.90
4615;DHT22;2320;51.362;6.946;2023-03-24T03:53:12;13.10;99.90
4615;DHT22;2320;51.362;6.946;2023-03-24T03:55:39;13.10;99.90
4615;DHT22;2320;51.362;6.946;2023-03-24T03:58:06;13.10;99.90
4615;DHT22;2320;51.362;6.946;2023-03-24T04:00:31;13.10;99.90
4615;DHT22;2320;51.362;6.946;2023-03-24T04:05:46;13.10;99.90
4615;DHT22;2320;51.362;6.946;2023-03-24T04:08:25;13.10;99.90
4615;DHT22;2320;51.362;6.946;2023-03-24T04:13:27;13.20;99.90
4615;DHT22;2320;51.362;6.946;2023-03-24T04:18:30;13.30;99.90
4615;DHT22;2320;51.362;6.946;2023-03-24T04:23:52;13.30;99.90
4615;DHT22;2320;51.362;6.946;2023-03-24T04:26:26;13.20;99.90
4615;DHT22;2320;51.362;6.946;2023-03-24T04:31:57;13.00;99.90
4615;DHT22;2320;51.362;6.946;2023-03-24T04:34:34;12.90;99.90
4615;DHT22;2320;51.362;6.946;2023-03-24T04:37:05;13.00;99.90
4615;DHT22;2320;51.362;6.946;2023-03-24T04:39:34;13.00;99.90
4615;DHT22;2320;51.362;6.946;2023-03-24T04:42:05;12.90;99.90
4615;DHT22;2320;51.362;6.946;2023-03-24T04:44:31;12.80;99.90
4615;DHT22;2320;51.362;6.946;2023-03-24T04:46:58;12.80;99.90
4615;DHT22;2320;51.362;6.946;2023-03-24T04:49:24;12.80;99.90
4615;DHT22;2320;51.362;6.946;2023-03-24T04:51:50;12.70;99.90
4615;DHT22;2320;51.362;6.946;2023-03-24T04:54:16;12.70;99.90
4615;DHT22;2320;51.362;6.946;2023-03-24T04:56:43;12.60;99.90
4615;DHT22;2320;51.362;6.946;2023-03-24T04:59:12;12.60;99.90
4615;DHT22;2320;51.362;6.946;2023-03-24T05:01:38;12.60;99.90
4615;DHT22;2320;51.362;6.946;2023-03-24T05:04:03;12.70;99.90
4615;DHT22;2320;51.362;6.946;2023-03-24T05:06:29;12.70;99.90
4615;DHT22;2320;51.362;6.946;2023-03-24T05:08:55;12.60;99.90
4615;DHT22;2320;51.362;6.946;2023-03-24T05:11:26;12.70;99.90
4615;DHT22;2320;51.362;6.946;2023-03-24T05:13:52;12.70;99.90
4615;DHT22;2320;51.362;6.946;2023-03-24T05:16:17;12.50;99.90
4615;DHT22;2320;51.362;6.946;2023-03-24T05:18:43;12.50;99.90
4615;DHT22;2320;51.362;6.946;2023-03-24T05:21:09;12.40;99.90
4615;DHT22;2320;51.362;6.946;2023-03-24T05:23:34;12.40;99.90
4615;DHT22;2320;51.362;6.946;2023-03-24T05:26:00;12.30;99.90
4615;DHT22;2320;51.362;6.946;2023-03-24T05:28:26;12.20;99.90
4615;DHT22;2320;51.362;6.946;2023-03-24T05:30:51;12.20;99.90
4615;DHT22;2320;51.362;6.946;2023-03-24T05:33:16;12.00;99.90
4615;DHT22;2320;51.362;6.946;2023-03-24T05:35:42;12.00;99.90
4615;DHT22;2320;51.362;6.946;2023-03-24T05:38:07;12.10;99.90
4615;DHT22;2320;51.362;6.946;2023-03-24T05:40:33;12.10;99.90
4615;DHT22;2320;51.362;6.946;2023-03-24T05:43:00;12.10;99.90
4615;DHT22;2320;51.362;6.946;2023-03-24T05:45:25;11.90;99.90
4615;DHT22;2320;51.362;6.946;2023-03-24T05:47:51;11.80;99.90
4615;DHT22;2320;51.362;6.946;2023-03-24T05:50:16;11.70;99.90
4615;DHT22;2320;51.362;6.946;2023-03-24T05:52:42;11.60;99.90
4615;DHT22;2320;51.362;6.946;2023-03-24T05:55:07;11.60;99.90
4615;DHT22;2320;51.362;6.946;2023-03-24T05:57:33;11.60;99.90
4615;DHT22;2320;51.362;6.946;2023-03-24T06:00:01;11.50;99.90
4615;DHT22;2320;51.362;6.946;2023-03-24T06:02:31;11.50;99.90
4615;DHT22;2320;51.362;6.946;2023-03-24T06:04:56;11.50;99.90
4615;DHT22;2320;51.362;6.946;2023-03-24T06:07:22;11.50;99.90
4615;DHT22;2320;51.362;6.946;2023-03-24T06:09:50;11.50;99.90
4615;DHT22;2320;51.362;6.946;2023-03-24T06:12:16;11.50;99.90
4615;DHT22;2320;51.362;6.946;2023-03-24T06:14:42;11.60;99.90
4615;DHT22;2320;51.362;6.946;2023-03-24T06:17:08;11.60;99.90
4615;DHT22;2320;51.362;6.946;2023-03-24T06:19:39;11.60;99.90
4615;DHT22;2320;51.362;6.946;2023-03-24T06:22:04;11.70;99.90
4615;DHT22;2320;51.362;6.946;2023-03-24T06:24:30;11.70;99.90
4615;DHT22;2320;51.362;6.946;2023-03-24T06:26:55;11.70;99.90
4615;DHT22;2320;51.362;6.946;2023-03-24T06:29:27;11.70;99.90
4615;DHT22;2320;51.362;6.946;2023-03-24T06:31:53;11.60;99.90
4615;DHT22;2320;51.362;6.946;2023-03-24T06:34:19;11.60;99.90
4615;DHT22;2320;51.362;6.946;2023-03-24T06:36:46;11.50;99.90
4615;DHT22;2320;51.362;6.946;2023-03-24T06:39:12;11.40;99.90
4615;DHT22;2320;51.362;6.946;2023-03-24T06:41:37;11.40;99.90
4615;DHT22;2320;51.362;6.946;2023-03-24T06:44:03;11.90;99.90
4615;DHT22;2320;51.362;6.946;2023-03-24T06:46:28;12.60;99.90
4615;DHT22;2320;51.362;6.946;2023-03-24T06:48:53;13.10;99.90
4615;DHT22;2320;51.362;6.946;2023-03-24T06:51:19;13.70;99.90
4615;DHT22;2320;51.362;6.946;2023-03-24T06:53:45;14.50;99.90
4615;DHT22;2320;51.362;6.946;2023-03-24T06:56:11;14.80;99.90
4615;DHT22;2320;51.362;6.946;2023-03-24T06:58:42;14.70;99.90
4615;DHT22;2320;51.362;6.946;2023-03-24T07:01:07;14.50;99.90
4615;DHT22;2320;51.362;6.946;2023-03-24T07:03:35;15.20;99.90
4615;DHT22;2320;51.362;6.946;2023-03-24T07:06:00;15.60;99.90
4615;DHT22;2320;51.362;6.946;2023-03-24T07:08:26;15.90;99.90
4615;DHT22;2320;51.362;6.946;2023-03-24T07:10:51;16.50;99.90
4615;DHT22;2320;51.362;6.946;2023-03-24T07:13:17;17.00;99.90
4615;DHT22;2320;51.362;6.946;2023-03-24T07:15:42;17.20;99.90
4615;DHT22;2320;51.362;6.946;2023-03-24T07:18:08;17.00;99.90
4615;DHT22;2320;51.362;6.946;2023-03-24T07:20:33;17.20;99.90
4615;DHT22;2320;51.362;6.946;2023-03-24T07:22:59;17.50;99.90
4615;DHT22;2320;51.362;6.946;2023-03-24T07:25:24;17.90;99.90
4615;DHT22;2320;51.362;6.946;2023-03-24T07:27:53;17.90;99.90
4615;DHT22;2320;51.362;6.946;2023-03-24T07:30:22;18.00;99.90
4615;DHT22;2320;51.362;6.946;2023-03-24T07:32:47;18.30;99.90
4615;DHT22;2320;51.362;6.946;2023-03-24T07:35:13;18.80;99.90
4615;DHT22;2320;51.362;6.946;2023-03-24T07:37:40;19.60;99.90
4615;DHT22;2320;51.362;6.946;2023-03-24T07:40:06;20.80;99.90
4615;DHT22;2320;51.362;6.946;2023-03-24T07:42:39;21.50;99.90
4615;DHT22;2320;51.362;6.946;2023-03-24T07:45:07;22.10;99.90
4615;DHT22;2320;51.362;6.946;2023-03-24T07:47:33;22.40;99.90
4615;DHT22;2320;51.362;6.946;2023-03-24T07:49:58;22.80;99.90
4615;DHT22;2320;51.362;6.946;2023-03-24T07:52:24;22.50;99.90
4615;DHT22;2320;51.362;6.946;2023-03-24T07:54:49;21.90;99.90
4615;DHT22;2320;51.362;6.946;2023-03-24T07:57:16;21.90;99.90
4615;DHT22;2320;51.362;6.946;2023-03-24T07:59:41;22.40;99.90
4615;DHT22;2320;51.362;6.946;2023-03-24T08:02:16;22.60;99.90
4615;DHT22;2320;51.362;6.946;2023-03-24T08:04:42;22.10;99.90
4615;DHT22;2320;51.362;6.946;2023-03-24T08:07:09;22.70;99.90
4615;DHT22;2320;51.362;6.946;2023-03-24T08:09:36;22.60;99.90
4615;DHT22;2320;51.362;6.946;2023-03-24T08:12:02;21.60;99.90
4615;DHT22;2320;51.362;6.946;2023-03-24T08:14:27;20.80;99.90
4615;DHT22;2320;51.362;6.946;2023-03-24T08:16:52;21.10;99.90
4615;DHT22;2320;51.362;6.946;2023-03-24T08:19:18;21.40;99.90
4615;DHT22;2320;51.362;6.946;2023-03-24T08:21:43;21.90;99.90
4615;DHT22;2320;51.362;6.946;2023-03-24T08:24:09;22.20;99.90
4615;DHT22;2320;51.362;6.946;2023-03-24T08:26:34;22.00;99.90
4615;DHT22;2320;51.362;6.946;2023-03-24T08:29:00;21.70;99.90
4615;DHT22;2320;51.362;6.946;2023-03-24T08:31:32;22.50;99.90
4615;DHT22;2320;51.362;6.946;2023-03-24T08:33:57;23.70;99.90
4615;DHT22;2320;51.362;6.946;2023-03-24T08:36:24;24.20;99.90
4615;DHT22;2320;51.362;6.946;2023-03-24T08:38:51;24.40;99.90
4615;DHT22;2320;51.362;6.946;2023-03-24T08:41:19;23.40;99.90
4615;DHT22;2320;51.362;6.946;2023-03-24T08:43:44;22.10;99.90
4615;DHT22;2320;51.362;6.946;2023-03-24T08:46:10;21.70;99.90
4615;DHT22;2320;51.362;6.946;2023-03-24T08:48:35;21.00;99.90
4615;DHT22;2320;51.362;6.946;2023-03-24T08:51:10;21.30;99.90
4615;DHT22;2320;51.362;6.946;2023-03-24T08:53:36;21.50;99.90
4615;DHT22;2320;51.362;6.946;2023-03-24T08:56:02;21.80;99.90
4615;DHT22;2320;51.362;6.946;2023-03-24T08:58:27;21.80;99.90
4615;DHT22;2320;51.362;6.946;2023-03-24T09:00:53;22.10;99.90
4615;DHT22;2320;51.362;6.946;2023-03-24T09:03:18;22.60;99.90
4615;DHT22;2320;51.362;6.946;2023-03-24T09:05:46;22.90;99.90
4615;DHT22;2320;51.362;6.946;2023-03-24T09:08:13;23.50;99.90
4615;DHT22;2320;51.362;6.946;2023-03-24T09:10:39;23.90;99.90
4615;DHT22;2320;51.362;6.946;2023-03-24T09:13:05;23.60;99.90
4615;DHT22;2320;51.362;6.946;2023-03-24T09:15:30;23.80;99.90
4615;DHT22;2320;51.362;6.946;2023-03-24T09:17:55;23.70;99.90
4615;DHT22;2320;51.362;6.946;2023-03-24T09:20:21;23.30;99.90
4615;DHT22;2320;51.362;6.946;2023-03-24T09:22:46;23.20;99.90
4615;DHT22;2320;51.362;6.946;2023-03-24T09:25:13;23.50;99.90
4615;DHT22;2320;51.362;6.946;2023-03-24T09:27:39;23.80;99.90
4615;DHT22;2320;51.362;6.946;2023-03-24T09:30:05;23.90;99.90
4615;DHT22;2320;51.362;6.946;2023-03-24T09:32:31;23.20;99.90
4615;DHT22;2320;51.362;6.946;2023-03-24T09:34:58;22.20;99.90
4615;DHT22;2320;51.362;6.946;2023-03-24T09:37:23;21.30;99.90
4615;DHT22;2320;51.362;6.946;2023-03-24T09:39:49;20.60;99.90
4615;DHT22;2320;51.362;6.946;2023-03-24T09:42:24;20.80;99.90
4615;DHT22;2320;51.362;6.946;2023-03-24T09:44:54;20.40;99.90
4615;DHT22;2320;51.362;6.946;2023-03-24T09:47:28;20.80;99.90
4615;DHT22;2320;51.362;6.946;2023-03-24T09:49:54;21.90;99.90
4615;DHT22;2320;51.362;6.946;2023-03-24T09:52:26;22.80;99.90
4615;DHT22;2320;51.362;6.946;2023-03-24T09:54:54;23.60;99.90
4615;DHT22;2320;51.362;6.946;2023-03-24T09:57:42;23.60;99.90
4615;DHT22;2320;51.362;6.946;2023-03-24T10:00:23;23.40;99.90
4615;DHT22;2320;51.362;6.946;2023-03-24T10:02:49;22.10;99.90
4615;DHT22;2320;51.362;6.946;2023-03-24T10:05:16;21.90;99.90
4615;DHT22;2320;51.362;6.946;2023-03-24T10:07:43;21.30;99.90
4615;DHT22;2320;51.362;6.946;2023-03-24T10:10:17;20.50;99.90
4615;DHT22;2320;51.362;6.946;2023-03-24T10:12:45;19.40;99.90
4615;DHT22;2320;51.362;6.946;2023-03-24T10:20:43;18.10;99.90
4615;DHT22;2320;51.362;6.946;2023-03-24T10:26:35;17.70;99.90
4615;DHT22;2320;51.362;6.946;2023-03-24T10:28:43;17.60;99.90
4615;DHT22;2320;51.362;6.946;2023-03-24T10:31:10;17.30;99.90
4615;DHT22;2320;51.362;6.946;2023-03-24T10:33:41;16.90;99.90
4615;DHT22;2320;51.362;6.946;2023-03-24T10:36:11;16.90;99.90
4615;DHT22;2320;51.362;6.946;2023-03-24T10:38:38;16.90;99.90
4615;DHT22;2320;51.362;6.946;2023-03-24T10:41:03;16.90;99.90
4615;DHT22;2320;51.362;6.946;2023-03-24T10:43:29;16.80;99.90
4615;DHT22;2320;51.362;6.946;2023-03-24T10:45:55;16.60;99.90
4615;DHT22;2320;51.362;6.946;2023-03-24T10:50:59;16.50;99.90
4615;DHT22;2320;51.362;6.946;2023-03-24T10:53:24;16.70;99.90
4615;DHT22;2320;51.362;6.946;2023-03-24T10:55:49;17.00;99.90
4615;DHT22;2320;51.362;6.946;2023-03-24T10:58:27;17.70;99.90
4615;DHT22;2320;51.362;6.946;2023-03-24T11:00:53;17.60;99.90
4615;DHT22;2320;51.362;6.946;2023-03-24T11:03:26;17.50;99.90
4615;DHT22;2320;51.362;6.946;2023-03-24T11:05:56;17.50;99.90
4615;DHT22;2320;51.362;6.946;2023-03-24T11:08:27;17.40;99.90
4615;DHT22;2320;51.362;6.946;2023-03-24T11:10:56;17.40;99.90
4615;DHT22;2320;51.362;6.946;2023-03-24T11:18:18;16.80;99.90
4615;DHT22;2320;51.362;6.946;2023-03-24T11:20:45;16.90;99.90
4615;DHT22;2320;51.362;6.946;2023-03-24T11:25:43;16.80;99.90
4615;DHT22;2320;51.362;6.946;2023-03-24T11:28:14;16.80;99.90
4615;DHT22;2320;51.362;6.946;2023-03-24T11:30:45;16.70;99.90
4615;DHT22;2320;51.362;6.946;2023-03-24T11:33:14;16.60;99.90
4615;DHT22;2320;51.362;6.946;2023-03-24T11:35:42;16.60;99.90
4615;DHT22;2320;51.362;6.946;2023-03-24T11:38:07;16.60;99.90
4615;DHT22;2320;51.362;6.946;2023-03-24T11:40:33;16.80;99.90
4615;DHT22;2320;51.362;6.946;2023-03-24T11:42:59;17.00;99.90
4615;DHT22;2320;51.362;6.946;2023-03-24T11:45:40;17.10;99.90
4615;DHT22;2320;51.362;6.946;2023-03-24T11:48:13;17.00;99.90
4615;DHT22;2320;51.362;6.946;2023-03-24T11:50:41;16.90;99.90
4615;DHT22;2320;51.362;6.946;2023-03-24T12:00:32;16.60;99.90
4615;DHT22;2320;51.362;6.946;2023-03-24T12:05:49;17.00;99.90
4615;DHT22;2320;51.362;6.946;2023-03-24T12:08:30;17.00;99.90
4615;DHT22;2320;51.362;6.946;2023-03-24T12:11:07;16.70;99.90
4615;DHT22;2320;51.362;6.946;2023-03-24T12:13:37;16.40;99.90
4615;DHT22;2320;51.362;6.946;2023-03-24T12:18:35;16.30;99.90
4615;DHT22;2320;51.362;6.946;2023-03-24T12:26:28;16.70;99.90
4615;DHT22;2320;51.362;6.946;2023-03-24T12:29:01;16.90;99.90
4615;DHT22;2320;51.362;6.946;2023-03-24T12:34:07;17.00;99.90
4615;DHT22;2320;51.362;6.946;2023-03-24T12:44:10;16.60;99.90
4615;DHT22;2320;51.362;6.946;2023-03-24T12:47:02;16.30;99.90
4615;DHT22;2320;51.362;6.946;2023-03-24T12:49:41;16.00;99.90
4615;DHT22;2320;51.362;6.946;2023-03-24T12:54:42;16.30;99.90
4615;DHT22;2320;51.362;6.946;2023-03-24T12:57:13;16.50;99.90
4615;DHT22;2320;51.362;6.946;2023-03-24T12:59:40;16.70;99.90
4615;DHT22;2320;51.362;6.946;2023-03-24T13:02:15;16.50;99.90
4615;DHT22;2320;51.362;6.946;2023-03-24T13:04:42;16.30;99.90
4615;DHT22;2320;51.362;6.946;2023-03-24T13:07:10;16.30;99.90
4615;DHT22;2320;51.362;6.946;2023-03-24T13:09:49;16.10;99.90
4615;DHT22;2320;51.362;6.946;2023-03-24T13:12:23;15.90;99.90
4615;DHT22;2320;51.362;6.946;2023-03-24T13:14:56;15.90;99.90
4615;DHT22;2320;51.362;6.946;2023-03-24T13:17:35;16.10;99.90
4615;DHT22;2320;51.362;6.946;2023-03-24T13:20:03;16.20;99.90
4615;DHT22;2320;51.362;6.946;2023-03-24T13:22:31;16.20;99.90
4615;DHT22;2320;51.362;6.946;2023-03-24T13:24:58;16.00;99.90
4615;DHT22;2320;51.362;6.946;2023-03-24T13:27:25;15.90;99.90
4615;DHT22;2320;51.362;6.946;2023-03-24T13:30:13;16.00;99.90
4615;DHT22;2320;51.362;6.946;2023-03-24T13:32:40;16.10;99.90
4615;DHT22;2320;51.362;6.946;2023-03-24T13:40:28;16.20;99.90
4615;DHT22;2320;51.362;6.946;2023-03-24T13:43:00;16.20;99.90
4615;DHT22;2320;51.362;6.946;2023-03-24T13:45:46;16.10;99.90
4615;DHT22;2320;51.362;6.946;2023-03-24T13:53:42;16.00;99.90
4615;DHT22;2320;51.362;6.946;2023-03-24T13:56:09;16.40;99.90
4615;DHT22;2320;51.362;6.946;2023-03-24T13:58:48;16.60;99.90
4615;DHT22;2320;51.362;6.946;2023-03-24T14:01:29;16.60;99.90
4615;DHT22;2320;51.362;6.946;2023-03-24T14:06:43;16.50;99.90
4615;DHT22;2320;51.362;6.946;2023-03-24T14:12:07;16.60;99.90
4615;DHT22;2320;51.362;6.946;2023-03-24T14:14:35;16.60;99.90
4615;DHT22;2320;51.362;6.946;2023-03-24T14:22:14;16.50;99.90
4615;DHT22;2320;51.362;6.946;2023-03-24T14:24:41;16.60;99.90
4615;DHT22;2320;51.362;6.946;2023-03-24T14:29:51;16.40;99.90
4615;DHT22;2320;51.362;6.946;2023-03-24T14:32:18;16.20;99.90
4615;DHT22;2320;51.362;6.946;2023-03-24T14:34:56;16.10;99.90
4615;DHT22;2320;51.362;6.946;2023-03-24T14:37:23;16.10;99.90
4615;DHT22;2320;51.362;6.946;2023-03-24T14:39:49;16.00;99.90
4615;DHT22;2320;51.362;6.946;2023-03-24T14:42:51;15.90;99.90
4615;DHT22;2320;51.362;6.946;2023-03-24T14:47:57;15.80;99.90
4615;DHT22;2320;51.362;6.946;2023-03-24T14:50:23;15.80;99.90
4615;DHT22;2320;51.362;6.946;2023-03-24T14:52:50;15.70;99.90
4615;DHT22;2320;51.362;6.946;2023-03-24T14:55:17;15.50;99.90
4615;DHT22;2320;51.362;6.946;2023-03-24T14:57:47;15.20;99.90
4615;DHT22;2320;51.362;6.946;2023-03-24T15:02:49;14.70;99.90
4615;DHT22;2320;51.362;6.946;2023-03-24T15:07:44;14.60;99.90
4615;DHT22;2320;51.362;6.946;2023-03-24T15:10:12;14.50;99.90
4615;DHT22;2320;51.362;6.946;2023-03-24T15:12:42;14.50;99.90
4615;DHT22;2320;51.362;6.946;2023-03-24T15:15:40;14.10;99.90
4615;DHT22;2320;51.362;6.946;2023-03-24T15:17:59;14.10;99.90
4615;DHT22;2320;51.362;6.946;2023-03-24T15:20:30;14.20;99.90
4615;DHT22;2320;51.362;6.946;2023-03-24T15:23:04;14.20;99.90
4615;DHT22;2320;51.362;6.946;2023-03-24T15:25:30;14.30;99.90
4615;DHT22;2320;51.362;6.946;2023-03-24T15:27:56;14.30;99.90
4615;DHT22;2320;51.362;6.946;2023-03-24T15:30:21;14.30;99.90
4615;DHT22;2320;51.362;6.946;2023-03-24T15:32:47;14.30;99.90
4615;DHT22;2320;51.362;6.946;2023-03-24T15:35:14;14.10;99.90
4615;DHT22;2320;51.362;6.946;2023-03-24T15:37:41;13.90;99.90
4615;DHT22;2320;51.362;6.946;2023-03-24T15:42:50;13.80;99.90
4615;DHT22;2320;51.362;6.946;2023-03-24T15:45:25;13.70;99.90
4615;DHT22;2320;51.362;6.946;2023-03-24T15:47:52;13.80;99.90
4615;DHT22;2320;51.362;6.946;2023-03-24T15:53:03;13.70;99.90
4615;DHT22;2320;51.362;6.946;2023-03-24T15:55:31;13.50;99.90
4615;DHT22;2320;51.362;6.946;2023-03-24T15:57:59;13.50;99.90
4615;DHT22;2320;51.362;6.946;2023-03-24T16:00:27;13.40;99.90
4615;DHT22;2320;51.362;6.946;2023-03-24T16:02:53;13.10;99.90
4615;DHT22;2320;51.362;6.946;2023-03-24T16:07:52;12.00;99.90
4615;DHT22;2320;51.362;6.946;2023-03-24T16:10:27;11.70;99.90
4615;DHT22;2320;51.362;6.946;2023-03-24T16:15:44;11.60;99.90
4615;DHT22;2320;51.362;6.946;2023-03-24T16:18:12;11.60;99.90
4615;DHT22;2320;51.362;6.946;2023-03-24T16:20:38;11.70;99.90
4615;DHT22;2320;51.362;6.946;2023-03-24T16:23:04;11.70;99.90
4615;DHT22;2320;51.362;6.946;2023-03-24T16:25:29;11.70;99.90
4615;DHT22;2320;51.362;6.946;2023-03-24T16:27:56;11.70;99.90
4615;DHT22;2320;51.362;6.946;2023-03-24T16:30:22;11.70;99.90
4615;DHT22;2320;51.362;6.946;2023-03-24T16:32:49;11.60;99.90
4615;DHT22;2320;51.362;6.946;2023-03-24T16:35:15;11.70;99.90
4615;DHT22;2320;51.362;6.946;2023-03-24T16:37:40;11.60;99.90
4615;DHT22;2320;51.362;6.946;2023-03-24T16:40:20;11.60;99.90
4615;DHT22;2320;51.362;6.946;2023-03-24T16:42:46;11.60;99.90
4615;DHT22;2320;51.362;6.946;2023-03-24T16:45:12;11.50;99.90
4615;DHT22;2320;51.362;6.946;2023-03-24T16:47:37;11.50;99.90
4615;DHT22;2320;51.362;6.946;2023-03-24T16:50:16;11.50;99.90
4615;DHT22;2320;51.362;6.946;2023-03-24T16:52:45;11.50;99.90
4615;DHT22;2320;51.362;6.946;2023-03-24T16:55:11;11.50;99.90
4615;DHT22;2320;51.362;6.946;2023-03-24T16:57:36;11.50;99.90
4615;DHT22;2320;51.362;6.946;2023-03-24T17:00:02;11.60;99.90
4615;DHT22;2320;51.362;6.946;2023-03-24T17:02:34;11.60;99.90
4615;DHT22;2320;51.362;6.946;2023-03-24T17:05:08;11.60;99.90
4615;DHT22;2320;51.362;6.946;2023-03-24T17:07:38;11.60;99.90
4615;DHT22;2320;51.362;6.946;2023-03-24T17:10:03;11.60;99.90
4615;DHT22;2320;51.362;6.946;2023-03-24T17:12:29;11.70;99.90
4615;DHT22;2320;51.362;6.946;2023-03-24T17:14:55;11.60;99.90
4615;DHT22;2320;51.362;6.946;2023-03-24T17:17:20;11.60;99.90
4615;DHT22;2320;51.362;6.946;2023-03-24T17:19:46;11.60;99.90
4615;DHT22;2320;51.362;6.946;2023-03-24T17:22:12;11.60;99.90
4615;DHT22;2320;51.362;6.946;2023-03-24T17:24:41;11.40;99.90
4615;DHT22;2320;51.362;6.946;2023-03-24T17:27:11;11.50;99.90
4615;DHT22;2320;51.362;6.946;2023-03-24T17:29:38;11.50;99.90
4615;DHT22;2320;51.362;6.946;2023-03-24T17:32:04;11.40;99.90
4615;DHT22;2320;51.362;6.946;2023-03-24T17:34:29;11.30;99.90
4615;DHT22;2320;51.362;6.946;2023-03-24T17:36:55;11.20;99.90
4615;DHT22;2320;51.362;6.946;2023-03-24T17:39:20;11.10;99.90
4615;DHT22;2320;51.362;6.946;2023-03-24T17:41:46;11.10;99.90
4615;DHT22;2320;51.362;6.946;2023-03-24T17:44:11;11.10;99.90
4615;DHT22;2320;51.362;6.946;2023-03-24T17:46:37;11.10;99.90
4615;DHT22;2320;51.362;6.946;2023-03-24T17:49:02;10.90;99.90
4615;DHT22;2320;51.362;6.946;2023-03-24T17:51:28;11.00;99.90
4615;DHT22;2320;51.362;6.946;2023-03-24T17:53:54;10.90;99.90
4615;DHT22;2320;51.362;6.946;2023-03-24T17:56:19;10.90;99.90
4615;DHT22;2320;51.362;6.946;2023-03-24T17:58:44;10.90;99.90
4615;DHT22;2320;51.362;6.946;2023-03-24T18:01:11;10.90;99.90
4615;DHT22;2320;51.362;6.946;2023-03-24T18:03:39;10.90;99.90
4615;DHT22;2320;51.362;6.946;2023-03-24T18:06:08;10.90;99.90
4615;DHT22;2320;51.362;6.946;2023-03-24T18:08:34;10.90;99.90
4615;DHT22;2320;51.362;6.946;2023-03-24T18:11:10;10.90;99.90
4615;DHT22;2320;51.362;6.946;2023-03-24T18:13:35;10.80;99.90
4615;DHT22;2320;51.362;6.946;2023-03-24T18:16:01;10.80;99.90